sensor_id;sensor_type;location;lat;lon;timestamp;temperature;humidity
27803;DHT22;15182;48.174;11.562;2024-01-07T00:02:22;7.50;97.80
27803;DHT22;15182;48.174;11.562;2024-01-07T00:04:50;7.50;97.80
27803;DHT22;15182;48.174;11.562;2024-01-07T00:07:19;7.50;97.80
27803;DHT22;15182;48.174;11.562;2024-01-07T00:09:47;7.50;97.80
27803;DHT22;15182;48.174;11.562;2024-01-07T00:12:15;7.50;97.80
27803;DHT22;15182;48.174;11.562;2024-01-07T00:14:43;7.40;97.80
27803;DHT22;15182;48.174;11.562;2024-01-07T00:17:11;7.40;97.80
27803;DHT22;15182;48.174;11.562;2024-01-07T00:19:39;7.50;97.80
27803;DHT22;15182;48.174;11.562;2024-01-07T00:22:07;7.40;97.80
27803;DHT22;15182;48.174;11.562;2024-01-07T00:24:37;7.40;97.80
27803;DHT22;15182;48.174;11.562;2024-01-07T00:27:05;7.40;97.90
27803;DHT22;15182;48.174;11.562;2024-01-07T00:29:34;7.40;97.90
27803;DHT22;15182;48.174;11.562;2024-01-07T00:32:02;7.40;97.90
27803;DHT22;15182;48.174;11.562;2024-01-07T00:34:30;7.40;98.30
27803;DHT22;15182;48.174;11.562;2024-01-07T00:36:58;7.40;98.00
27803;DHT22;15182;48.174;11.562;2024-01-07T00:39:26;7.40;98.00
27803;DHT22;15182;48.174;11.562;2024-01-07T00:41:55;7.40;98.30
27803;DHT22;15182;48.174;11.562;2024-01-07T00:44:23;7.40;97.90
27803;DHT22;15182;48.174;11.562;2024-01-07T00:46:51;7.40;98.00
27803;DHT22;15182;48.174;11.562;2024-01-07T00:49:19;7.40;98.00
27803;DHT22;15182;48.174;11.562;2024-01-07T00:51:46;7.40;98.40
27803;DHT22;15182;48.174;11.562;2024-01-07T00:54:14;7.40;98.00
27803;DHT22;15182;48.174;11.562;2024-01-07T00:56:42;7.40;98.00
27803;DHT22;15182;48.174;11.562;2024-01-07T00:59:11;7.40;98.00
27803;DHT22;15182;48.174;11.562;2024-01-07T01:01:39;7.40;98.00
27803;DHT22;15182;48.174;11.562;2024-01-07T01:04:07;7.40;97.90
27803;DHT22;15182;48.174;11.562;2024-01-07T01:06:35;7.40;97.90
27803;DHT22;15182;48.174;11.562;2024-01-07T01:09:03;7.40;97.90
27803;DHT22;15182;48.174;11.562;2024-01-07T01:11:31;7.40;97.90
27803;DHT22;15182;48.174;11.562;2024-01-07T01:13:59;7.40;97.90
27803;DHT22;15182;48.174;11.562;2024-01-07T01:16:28;7.40;97.90
27803;DHT22;15182;48.174;11.562;2024-01-07T01:18:56;7.40;97.90
27803;DHT22;15182;48.174;11.562;2024-01-07T01:21:23;7.40;97.90
27803;DHT22;15182;48.174;11.562;2024-01-07T01:23:51;7.40;97.90
27803;DHT22;15182;48.174;11.562;2024-01-07T01:26:19;7.40;98.00
27803;DHT22;15182;48.174;11.562;2024-01-07T01:28:47;7.40;98.00
27803;DHT22;15182;48.174;11.562;2024-01-07T01:31:15;7.40;98.00
27803;DHT22;15182;48.174;11.562;2024-01-07T01:33:44;7.40;98.30
27803;DHT22;15182;48.174;11.562;2024-01-07T01:36:12;7.40;98.00
27803;DHT22;15182;48.174;11.562;2024-01-07T01:38:39;7.40;98.00
27803;DHT22;15182;48.174;11.562;2024-01-07T01:41:07;7.40;98.40
27803;DHT22;15182;48.174;11.562;2024-01-07T01:43:35;7.40;98.00
27803;DHT22;15182;48.174;11.562;2024-01-07T01:46:03;7.40;97.90
27803;DHT22;15182;48.174;11.562;2024-01-07T01:48:31;7.40;97.90
27803;DHT22;15182;48.174;11.562;2024-01-07T01:51:01;7.30;98.30
27803;DHT22;15182;48.174;11.562;2024-01-07T01:53:29;7.30;98.00
27803;DHT22;15182;48.174;11.562;2024-01-07T01:56:00;7.30;98.00
27803;DHT22;15182;48.174;11.562;2024-01-07T01:58:29;7.30;98.00
27803;DHT22;15182;48.174;11.562;2024-01-07T02:00:57;7.30;98.00
27803;DHT22;15182;48.174;11.562;2024-01-07T02:03:26;7.30;98.00
27803;DHT22;15182;48.174;11.562;2024-01-07T02:05:54;7.30;98.00
27803;DHT22;15182;48.174;11.562;2024-01-07T02:08:25;7.30;98.00
27803;DHT22;15182;48.174;11.562;2024-01-07T02:10:54;7.30;98.00
27803;DHT22;15182;48.174;11.562;2024-01-07T02:13:21;7.30;98.00
27803;DHT22;15182;48.174;11.562;2024-01-07T02:15:49;7.30;98.00
27803;DHT22;15182;48.174;11.562;2024-01-07T02:18:17;7.30;98.00
27803;DHT22;15182;48.174;11.562;2024-01-07T02:20:45;7.30;98.10
27803;DHT22;15182;48.174;11.562;2024-01-07T02:23:13;7.30;98.10
27803;DHT22;15182;48.174;11.562;2024-01-07T02:25:42;7.30;98.10
27803;DHT22;15182;48.174;11.562;2024-01-07T02:28:10;7.30;98.10
27803;DHT22;15182;48.174;11.562;2024-01-07T02:30:38;7.30;98.10
27803;DHT22;15182;48.174;11.562;2024-01-07T02:33:05;7.30;98.10
27803;DHT22;15182;48.174;11.562;2024-01-07T02:35:33;7.30;98.10
27803;DHT22;15182;48.174;11.562;2024-01-07T02:38:01;7.30;98.10
27803;DHT22;15182;48.174;11.562;2024-01-07T02:40:29;7.30;98.10
27803;DHT22;15182;48.174;11.562;2024-01-07T02:42:58;7.30;98.10
27803;DHT22;15182;48.174;11.562;2024-01-07T02:45:26;7.30;98.10
27803;DHT22;15182;48.174;11.562;2024-01-07T02:47:54;7.30;98.10
27803;DHT22;15182;48.174;11.562;2024-01-07T02:50:22;7.30;98.10
27803;DHT22;15182;48.174;11.562;2024-01-07T02:52:50;7.30;98.10
27803;DHT22;15182;48.174;11.562;2024-01-07T02:55:18;7.30;98.10
27803;DHT22;15182;48.174;11.562;2024-01-07T02:57:46;7.30;98.10
27803;DHT22;15182;48.174;11.562;2024-01-07T03:00:16;7.30;98.10
27803;DHT22;15182;48.174;11.562;2024-01-07T03:02:45;7.20;98.10
27803;DHT22;15182;48.174;11.562;2024-01-07T03:05:13;7.20;98.40
27803;DHT22;15182;48.174;11.562;2024-01-07T03:07:41;7.20;98.10
27803;DHT22;15182;48.174;11.562;2024-01-07T03:10:09;7.20;98.10
27803;DHT22;15182;48.174;11.562;2024-01-07T03:12:37;7.20;98.10
27803;DHT22;15182;48.174;11.562;2024-01-07T03:15:05;7.20;98.10
27803;DHT22;15182;48.174;11.562;2024-01-07T03:17:36;7.20;98.10
27803;DHT22;15182;48.174;11.562;2024-01-07T03:20:05;7.30;98.10
27803;DHT22;15182;48.174;11.562;2024-01-07T03:22:34;7.20;98.10
27803;DHT22;15182;48.174;11.562;2024-01-07T03:25:02;7.20;98.10
27803;DHT22;15182;48.174;11.562;2024-01-07T03:27:31;7.20;98.10
27803;DHT22;15182;48.174;11.562;2024-01-07T03:29:59;7.20;98.10
27803;DHT22;15182;48.174;11.562;2024-01-07T03:32:26;7.20;98.10
27803;DHT22;15182;48.174;11.562;2024-01-07T03:34:56;7.20;98.10
27803;DHT22;15182;48.174;11.562;2024-01-07T03:37:23;7.20;98.20
27803;DHT22;15182;48.174;11.562;2024-01-07T03:39:51;7.20;98.20
27803;DHT22;15182;48.174;11.562;2024-01-07T03:42:19;7.20;98.20
27803;DHT22;15182;48.174;11.562;2024-01-07T03:44:47;7.20;98.20
27803;DHT22;15182;48.174;11.562;2024-01-07T03:47:15;7.20;98.20
27803;DHT22;15182;48.174;11.562;2024-01-07T03:49:42;7.20;98.20
27803;DHT22;15182;48.174;11.562;2024-01-07T03:52:12;7.20;98.20
27803;DHT22;15182;48.174;11.562;2024-01-07T03:54:39;7.20;98.30
27803;DHT22;15182;48.174;11.562;2024-01-07T03:57:07;7.20;98.20
27803;DHT22;15182;48.174;11.562;2024-01-07T03:59:35;7.20;98.60
27803;DHT22;15182;48.174;11.562;2024-01-07T04:02:03;7.20;98.30
27803;DHT22;15182;48.174;11.562;2024-01-07T04:04:31;7.20;98.30
27803;DHT22;15182;48.174;11.562;2024-01-07T04:06:59;7.20;98.30
27803;DHT22;15182;48.174;11.562;2024-01-07T04:09:28;7.20;98.30
27803;DHT22;15182;48.174;11.562;2024-01-07T04:11:56;7.20;98.30
27803;DHT22;15182;48.174;11.562;2024-01-07T04:14:24;7.20;98.30
27803;DHT22;15182;48.174;11.562;2024-01-07T04:16:53;7.20;98.20
27803;DHT22;15182;48.174;11.562;2024-01-07T04:19:21;7.20;98.20
27803;DHT22;15182;48.174;11.562;2024-01-07T04:21:49;7.20;98.30
27803;DHT22;15182;48.174;11.562;2024-01-07T04:24:17;7.20;98.30
27803;DHT22;15182;48.174;11.562;2024-01-07T04:26:46;7.20;98.30
27803;DHT22;15182;48.174;11.562;2024-01-07T04:29:14;7.20;98.30
27803;DHT22;15182;48.174;11.562;2024-01-07T04:31:42;7.20;98.30
27803;DHT22;15182;48.174;11.562;2024-01-07T04:34:10;7.20;98.30
27803;DHT22;15182;48.174;11.562;2024-01-07T04:36:37;7.20;98.30
27803;DHT22;15182;48.174;11.562;2024-01-07T04:39:05;7.20;98.30
27803;DHT22;15182;48.174;11.562;2024-01-07T04:41:34;7.20;98.30
27803;DHT22;15182;48.174;11.562;2024-01-07T04:44:03;7.20;98.30
27803;DHT22;15182;48.174;11.562;2024-01-07T04:46:33;7.20;98.30
27803;DHT22;15182;48.174;11.562;2024-01-07T04:49:02;7.20;98.40
27803;DHT22;15182;48.174;11.562;2024-01-07T04:51:30;7.20;98.70
27803;DHT22;15182;48.174;11.562;2024-01-07T04:53:57;7.20;98.40
27803;DHT22;15182;48.174;11.562;2024-01-07T04:56:25;7.30;98.40
27803;DHT22;15182;48.174;11.562;2024-01-07T04:58:53;7.20;98.40
27803;DHT22;15182;48.174;11.562;2024-01-07T05:01:22;7.20;98.40
27803;DHT22;15182;48.174;11.562;2024-01-07T05:03:50;7.20;98.80
27803;DHT22;15182;48.174;11.562;2024-01-07T05:06:18;7.20;98.40
27803;DHT22;15182;48.174;11.562;2024-01-07T05:08:46;7.20;98.40
27803;DHT22;15182;48.174;11.562;2024-01-07T05:11:13;7.30;98.50
27803;DHT22;15182;48.174;11.562;2024-01-07T05:13:43;7.30;98.40
27803;DHT22;15182;48.174;11.562;2024-01-07T05:16:18;7.20;98.40
27803;DHT22;15182;48.174;11.562;2024-01-07T05:18:48;7.20;98.50
27803;DHT22;15182;48.174;11.562;2024-01-07T05:21:15;7.20;98.40
27803;DHT22;15182;48.174;11.562;2024-01-07T05:23:45;7.20;98.40
27803;DHT22;15182;48.174;11.562;2024-01-07T05:26:13;7.20;98.40
27803;DHT22;15182;48.174;11.562;2024-01-07T05:28:41;7.20;98.40
27803;DHT22;15182;48.174;11.562;2024-01-07T05:31:14;7.20;98.40
27803;DHT22;15182;48.174;11.562;2024-01-07T05:33:42;7.20;98.50
27803;DHT22;15182;48.174;11.562;2024-01-07T05:36:12;7.20;98.40
27803;DHT22;15182;48.174;11.562;2024-01-07T05:38:41;7.20;98.40
27803;DHT22;15182;48.174;11.562;2024-01-07T05:41:09;7.20;98.40
27803;DHT22;15182;48.174;11.562;2024-01-07T05:43:37;7.20;98.40
27803;DHT22;15182;48.174;11.562;2024-01-07T05:46:05;7.20;98.50
27803;DHT22;15182;48.174;11.562;2024-01-07T05:48:41;7.20;98.50
27803;DHT22;15182;48.174;11.562;2024-01-07T05:51:12;7.20;98.60
27803;DHT22;15182;48.174;11.562;2024-01-07T05:53:40;7.20;98.60
27803;DHT22;15182;48.174;11.562;2024-01-07T05:56:09;7.20;98.50
27803;DHT22;15182;48.174;11.562;2024-01-07T05:58:36;7.20;98.90
27803;DHT22;15182;48.174;11.562;2024-01-07T06:01:05;7.20;98.50
27803;DHT22;15182;48.174;11.562;2024-01-07T06:03:34;7.20;98.60
27803;DHT22;15182;48.174;11.562;2024-01-07T06:06:02;7.20;98.60
27803;DHT22;15182;48.174;11.562;2024-01-07T06:08:32;7.20;98.50
27803;DHT22;15182;48.174;11.562;2024-01-07T06:11:00;7.20;98.50
27803;DHT22;15182;48.174;11.562;2024-01-07T06:13:28;7.20;98.50
27803;DHT22;15182;48.174;11.562;2024-01-07T06:15:55;7.20;98.50
27803;DHT22;15182;48.174;11.562;2024-01-07T06:18:23;7.20;98.50
27803;DHT22;15182;48.174;11.562;2024-01-07T06:20:51;7.20;98.40
27803;DHT22;15182;48.174;11.562;2024-01-07T06:23:19;7.20;98.50
27803;DHT22;15182;48.174;11.562;2024-01-07T06:25:48;7.20;98.50
27803;DHT22;15182;48.174;11.562;2024-01-07T06:28:16;7.10;98.50
27803;DHT22;15182;48.174;11.562;2024-01-07T06:30:44;7.10;98.50
27803;DHT22;15182;48.174;11.562;2024-01-07T06:33:11;7.10;98.50
27803;DHT22;15182;48.174;11.562;2024-01-07T06:35:40;7.10;98.50
27803;DHT22;15182;48.174;11.562;2024-01-07T06:38:08;7.10;98.50
27803;DHT22;15182;48.174;11.562;2024-01-07T06:40:36;7.10;98.50
27803;DHT22;15182;48.174;11.562;2024-01-07T06:43:05;7.10;98.50
27803;DHT22;15182;48.174;11.562;2024-01-07T06:45:33;7.00;98.50
27803;DHT22;15182;48.174;11.562;2024-01-07T06:48:01;7.00;98.50
27803;DHT22;15182;48.174;11.562;2024-01-07T06:50:29;7.00;98.50
27803;DHT22;15182;48.174;11.562;2024-01-07T06:52:57;7.00;98.60
27803;DHT22;15182;48.174;11.562;2024-01-07T06:55:25;7.00;98.60
27803;DHT22;15182;48.174;11.562;2024-01-07T06:57:52;7.00;98.60
27803;DHT22;15182;48.174;11.562;2024-01-07T07:00:22;7.00;98.70
27803;DHT22;15182;48.174;11.562;2024-01-07T07:02:50;7.00;98.70
27803;DHT22;15182;48.174;11.562;2024-01-07T07:05:18;7.00;98.70
27803;DHT22;15182;48.174;11.562;2024-01-07T07:07:46;6.90;98.60
27803;DHT22;15182;48.174;11.562;2024-01-07T07:10:14;6.90;98.60
27803;DHT22;15182;48.174;11.562;2024-01-07T07:12:42;6.90;98.70
27803;DHT22;15182;48.174;11.562;2024-01-07T07:15:09;6.90;98.70
27803;DHT22;15182;48.174;11.562;2024-01-07T07:17:39;6.90;98.70
27803;DHT22;15182;48.174;11.562;2024-01-07T07:20:08;6.90;98.70
27803;DHT22;15182;48.174;11.562;2024-01-07T07:22:36;6.90;98.70
27803;DHT22;15182;48.174;11.562;2024-01-07T07:25:04;7.00;98.70
27803;DHT22;15182;48.174;11.562;2024-01-07T07:27:33;6.90;98.70
27803;DHT22;15182;48.174;11.562;2024-01-07T07:30:01;6.90;98.70
27803;DHT22;15182;48.174;11.562;2024-01-07T07:32:29;6.90;98.70
27803;DHT22;15182;48.174;11.562;2024-01-07T07:34:58;6.90;98.60
27803;DHT22;15182;48.174;11.562;2024-01-07T07:37:26;6.90;98.70
27803;DHT22;15182;48.174;11.562;2024-01-07T07:39:55;6.90;98.70
27803;DHT22;15182;48.174;11.562;2024-01-07T07:42:23;6.90;98.70
27803;DHT22;15182;48.174;11.562;2024-01-07T07:44:51;6.90;98.70
27803;DHT22;15182;48.174;11.562;2024-01-07T07:47:18;6.90;98.70
27803;DHT22;15182;48.174;11.562;2024-01-07T07:49:47;6.90;98.70
27803;DHT22;15182;48.174;11.562;2024-01-07T07:52:18;6.90;98.70
27803;DHT22;15182;48.174;11.562;2024-01-07T07:54:48;6.90;98.70
27803;DHT22;15182;48.174;11.562;2024-01-07T07:57:16;6.80;98.60
27803;DHT22;15182;48.174;11.562;2024-01-07T07:59:46;6.90;98.70
27803;DHT22;15182;48.174;11.562;2024-01-07T08:02:14;6.80;98.70
27803;DHT22;15182;48.174;11.562;2024-01-07T08:04:41;6.80;98.70
27803;DHT22;15182;48.174;11.562;2024-01-07T08:07:09;6.80;98.70
27803;DHT22;15182;48.174;11.562;2024-01-07T08:09:38;6.80;98.80
27803;DHT22;15182;48.174;11.562;2024-01-07T08:12:06;6.80;98.80
27803;DHT22;15182;48.174;11.562;2024-01-07T08:14:34;6.80;98.90
27803;DHT22;15182;48.174;11.562;2024-01-07T08:17:03;6.80;98.90
27803;DHT22;15182;48.174;11.562;2024-01-07T08:19:31;6.80;98.90
27803;DHT22;15182;48.174;11.562;2024-01-07T08:21:59;6.80;98.90
27803;DHT22;15182;48.174;11.562;2024-01-07T08:24:26;6.80;98.80
27803;DHT22;15182;48.174;11.562;2024-01-07T08:26:56;6.80;99.20
27803;DHT22;15182;48.174;11.562;2024-01-07T08:29:24;6.80;98.90
27803;DHT22;15182;48.174;11.562;2024-01-07T08:31:52;6.80;98.80
27803;DHT22;15182;48.174;11.562;2024-01-07T08:34:20;6.80;99.20
27803;DHT22;15182;48.174;11.562;2024-01-07T08:36:48;6.80;98.70
27803;DHT22;15182;48.174;11.562;2024-01-07T08:39:16;6.80;98.70
27803;DHT22;15182;48.174;11.562;2024-01-07T08:41:43;6.80;98.60
27803;DHT22;15182;48.174;11.562;2024-01-07T08:44:13;6.80;98.60
27803;DHT22;15182;48.174;11.562;2024-01-07T08:46:40;6.70;98.60
27803;DHT22;15182;48.174;11.562;2024-01-07T08:49:08;6.70;98.60
27803;DHT22;15182;48.174;11.562;2024-01-07T08:51:36;6.70;98.70
27803;DHT22;15182;48.174;11.562;2024-01-07T08:54:04;6.70;98.80
27803;DHT22;15182;48.174;11.562;2024-01-07T08:56:32;6.70;98.80
27803;DHT22;15182;48.174;11.562;2024-01-07T08:59:00;6.70;98.80
27803;DHT22;15182;48.174;11.562;2024-01-07T09:01:29;6.70;98.80
27803;DHT22;15182;48.174;11.562;2024-01-07T09:03:57;6.70;98.80
27803;DHT22;15182;48.174;11.562;2024-01-07T09:06:25;6.70;98.90
27803;DHT22;15182;48.174;11.562;2024-01-07T09:08:53;6.70;98.90
27803;DHT22;15182;48.174;11.562;2024-01-07T09:11:21;6.70;98.90
27803;DHT22;15182;48.174;11.562;2024-01-07T09:13:50;6.80;98.90
27803;DHT22;15182;48.174;11.562;2024-01-07T09:16:18;6.80;98.90
27803;DHT22;15182;48.174;11.562;2024-01-07T09:18:47;6.80;98.90
27803;DHT22;15182;48.174;11.562;2024-01-07T09:21:15;6.80;98.90
27803;DHT22;15182;48.174;11.562;2024-01-07T09:23:44;6.80;98.90
27803;DHT22;15182;48.174;11.562;2024-01-07T09:26:12;6.80;98.90
27803;DHT22;15182;48.174;11.562;2024-01-07T09:28:39;6.80;98.90
27803;DHT22;15182;48.174;11.562;2024-01-07T09:31:09;6.80;98.90
27803;DHT22;15182;48.174;11.562;2024-01-07T09:33:36;6.80;98.90
27803;DHT22;15182;48.174;11.562;2024-01-07T09:36:07;6.80;98.90
27803;DHT22;15182;48.174;11.562;2024-01-07T09:38:35;6.80;99.00
27803;DHT22;15182;48.174;11.562;2024-01-07T09:41:03;6.80;98.90
27803;DHT22;15182;48.174;11.562;2024-01-07T09:43:31;6.80;98.90
27803;DHT22;15182;48.174;11.562;2024-01-07T09:45:59;6.80;98.90
27803;DHT22;15182;48.174;11.562;2024-01-07T09:48:27;6.80;98.90
27803;DHT22;15182;48.174;11.562;2024-01-07T09:50:57;6.90;99.00
27803;DHT22;15182;48.174;11.562;2024-01-07T09:53:30;6.80;99.30
27803;DHT22;15182;48.174;11.562;2024-01-07T09:56:07;6.90;98.90
27803;DHT22;15182;48.174;11.562;2024-01-07T09:58:41;6.90;98.90
27803;DHT22;15182;48.174;11.562;2024-01-07T10:01:10;6.90;98.80
27803;DHT22;15182;48.174;11.562;2024-01-07T10:03:38;6.90;98.80
27803;DHT22;15182;48.174;11.562;2024-01-07T10:06:05;6.90;98.80
27803;DHT22;15182;48.174;11.562;2024-01-07T10:08:35;6.90;98.90
27803;DHT22;15182;48.174;11.562;2024-01-07T10:11:03;6.90;98.80
27803;DHT22;15182;48.174;11.562;2024-01-07T10:13:31;6.90;98.80
27803;DHT22;15182;48.174;11.562;2024-01-07T10:15:59;6.90;98.70
27803;DHT22;15182;48.174;11.562;2024-01-07T10:18:28;6.90;98.80
27803;DHT22;15182;48.174;11.562;2024-01-07T10:21:02;6.90;99.10
27803;DHT22;15182;48.174;11.562;2024-01-07T10:23:31;6.90;98.80
27803;DHT22;15182;48.174;11.562;2024-01-07T10:26:00;6.90;98.80
27803;DHT22;15182;48.174;11.562;2024-01-07T10:28:31;6.90;98.80
27803;DHT22;15182;48.174;11.562;2024-01-07T10:30:59;6.90;98.80
27803;DHT22;15182;48.174;11.562;2024-01-07T10:33:31;6.90;99.20
27803;DHT22;15182;48.174;11.562;2024-01-07T10:36:02;6.90;98.90
27803;DHT22;15182;48.174;11.562;2024-01-07T10:38:33;6.90;98.90
27803;DHT22;15182;48.174;11.562;2024-01-07T10:41:05;6.90;98.80
27803;DHT22;15182;48.174;11.562;2024-01-07T10:43:36;6.90;98.80
27803;DHT22;15182;48.174;11.562;2024-01-07T10:46:09;6.90;99.20
27803;DHT22;15182;48.174;11.562;2024-01-07T10:48:54;6.90;98.80
27803;DHT22;15182;48.174;11.562;2024-01-07T10:51:23;6.80;98.90
27803;DHT22;15182;48.174;11.562;2024-01-07T10:53:53;6.90;98.90
27803;DHT22;15182;48.174;11.562;2024-01-07T10:56:25;6.90;98.90
27803;DHT22;15182;48.174;11.562;2024-01-07T10:58:56;6.90;98.80
27803;DHT22;15182;48.174;11.562;2024-01-07T11:01:25;6.90;98.80
27803;DHT22;15182;48.174;11.562;2024-01-07T11:03:59;6.90;98.80
27803;DHT22;15182;48.174;11.562;2024-01-07T11:06:35;6.90;98.90
27803;DHT22;15182;48.174;11.562;2024-01-07T11:09:14;6.90;98.90
27803;DHT22;15182;48.174;11.562;2024-01-07T11:11:48;6.90;98.80
27803;DHT22;15182;48.174;11.562;2024-01-07T11:14:34;6.90;98.80
27803;DHT22;15182;48.174;11.562;2024-01-07T11:17:04;6.90;98.80
27803;DHT22;15182;48.174;11.562;2024-01-07T11:19:32;6.90;98.80
27803;DHT22;15182;48.174;11.562;2024-01-07T11:22:22;6.90;98.70
27803;DHT22;15182;48.174;11.562;2024-01-07T11:24:55;6.90;98.80
27803;DHT22;15182;48.174;11.562;2024-01-07T11:27:25;6.80;98.70
27803;DHT22;15182;48.174;11.562;2024-01-07T11:30:01;6.80;98.70
27803;DHT22;15182;48.174;11.562;2024-01-07T11:32:31;6.80;98.70
27803;DHT22;15182;48.174;11.562;2024-01-07T11:35:01;6.80;98.60
27803;DHT22;15182;48.174;11.562;2024-01-07T11:37:30;6.80;98.50
27803;DHT22;15182;48.174;11.562;2024-01-07T11:39:58;6.80;98.50
27803;DHT22;15182;48.174;11.562;2024-01-07T11:42:27;6.80;98.60
27803;DHT22;15182;48.174;11.562;2024-01-07T11:44:55;6.80;98.60
27803;DHT22;15182;48.174;11.562;2024-01-07T11:47:24;6.70;98.60
27803;DHT22;15182;48.174;11.562;2024-01-07T11:49:54;6.70;98.50
27803;DHT22;15182;48.174;11.562;2024-01-07T11:52:22;6.70;98.50
27803;DHT22;15182;48.174;11.562;2024-01-07T11:54:50;6.70;98.50
27803;DHT22;15182;48.174;11.562;2024-01-07T11:57:18;6.70;98.50
27803;DHT22;15182;48.174;11.562;2024-01-07T11:59:47;6.60;98.50
27803;DHT22;15182;48.174;11.562;2024-01-07T12:02:15;6.60;98.60
27803;DHT22;15182;48.174;11.562;2024-01-07T12:04:43;6.60;98.70
27803;DHT22;15182;48.174;11.562;2024-01-07T12:07:11;6.60;99.10
27803;DHT22;15182;48.174;11.562;2024-01-07T12:09:40;6.60;98.70
27803;DHT22;15182;48.174;11.562;2024-01-07T12:12:08;6.60;98.60
27803;DHT22;15182;48.174;11.562;2024-01-07T12:14:36;6.60;98.60
27803;DHT22;15182;48.174;11.562;2024-01-07T12:17:08;6.50;98.60
27803;DHT22;15182;48.174;11.562;2024-01-07T12:19:36;6.50;98.60
27803;DHT22;15182;48.174;11.562;2024-01-07T12:22:06;6.50;98.60
27803;DHT22;15182;48.174;11.562;2024-01-07T12:24:34;6.50;98.60
27803;DHT22;15182;48.174;11.562;2024-01-07T12:27:04;6.50;98.60
27803;DHT22;15182;48.174;11.562;2024-01-07T12:29:32;6.50;98.50
27803;DHT22;15182;48.174;11.562;2024-01-07T12:32:00;6.50;98.50
27803;DHT22;15182;48.174;11.562;2024-01-07T12:34:30;6.50;98.40
27803;DHT22;15182;48.174;11.562;2024-01-07T12:36:59;6.50;98.50
27803;DHT22;15182;48.174;11.562;2024-01-07T12:39:28;6.50;98.50
27803;DHT22;15182;48.174;11.562;2024-01-07T12:41:56;6.50;98.90
27803;DHT22;15182;48.174;11.562;2024-01-07T12:44:27;6.50;98.50
27803;DHT22;15182;48.174;11.562;2024-01-07T12:46:55;6.50;98.60
27803;DHT22;15182;48.174;11.562;2024-01-07T12:49:23;6.50;98.60
27803;DHT22;15182;48.174;11.562;2024-01-07T12:51:53;6.50;98.50
27803;DHT22;15182;48.174;11.562;2024-01-07T12:54:21;6.50;98.50
27803;DHT22;15182;48.174;11.562;2024-01-07T12:56:50;6.50;98.50
27803;DHT22;15182;48.174;11.562;2024-01-07T12:59:19;6.40;98.50
27803;DHT22;15182;48.174;11.562;2024-01-07T13:01:47;6.50;98.50
27803;DHT22;15182;48.174;11.562;2024-01-07T13:04:17;6.40;98.50
27803;DHT22;15182;48.174;11.562;2024-01-07T13:06:46;6.40;98.80
27803;DHT22;15182;48.174;11.562;2024-01-07T13:09:15;6.40;98.40
27803;DHT22;15182;48.174;11.562;2024-01-07T13:11:43;6.40;98.80
27803;DHT22;15182;48.174;11.562;2024-01-07T13:14:10;6.40;98.50
27803;DHT22;15182;48.174;11.562;2024-01-07T13:16:38;6.40;98.60
27803;DHT22;15182;48.174;11.562;2024-01-07T13:19:06;6.40;98.60
27803;DHT22;15182;48.174;11.562;2024-01-07T13:21:38;6.40;98.50
27803;DHT22;15182;48.174;11.562;2024-01-07T13:24:06;6.40;98.50
27803;DHT22;15182;48.174;11.562;2024-01-07T13:26:35;6.40;98.50
27803;DHT22;15182;48.174;11.562;2024-01-07T13:29:03;6.40;98.40
27803;DHT22;15182;48.174;11.562;2024-01-07T13:31:31;6.40;98.40
27803;DHT22;15182;48.174;11.562;2024-01-07T13:33:59;6.30;98.30
27803;DHT22;15182;48.174;11.562;2024-01-07T13:36:27;6.30;98.30
27803;DHT22;15182;48.174;11.562;2024-01-07T13:38:55;6.30;98.30
27803;DHT22;15182;48.174;11.562;2024-01-07T13:41:22;6.20;98.60
27803;DHT22;15182;48.174;11.562;2024-01-07T13:43:56;6.20;98.70
27803;DHT22;15182;48.174;11.562;2024-01-07T13:46:24;6.20;98.30
27803;DHT22;15182;48.174;11.562;2024-01-07T13:48:52;6.20;98.20
27803;DHT22;15182;48.174;11.562;2024-01-07T13:51:20;6.10;98.10
27803;DHT22;15182;48.174;11.562;2024-01-07T13:53:48;6.20;98.20
27803;DHT22;15182;48.174;11.562;2024-01-07T13:56:16;6.10;98.60
27803;DHT22;15182;48.174;11.562;2024-01-07T13:58:44;6.10;98.30
27803;DHT22;15182;48.174;11.562;2024-01-07T14:01:14;6.10;98.40
27803;DHT22;15182;48.174;11.562;2024-01-07T14:03:42;6.10;98.40
27803;DHT22;15182;48.174;11.562;2024-01-07T14:06:10;6.10;98.50
27803;DHT22;15182;48.174;11.562;2024-01-07T14:08:38;6.10;98.50
27803;DHT22;15182;48.174;11.562;2024-01-07T14:11:06;6.10;98.50
27803;DHT22;15182;48.174;11.562;2024-01-07T14:13:34;6.10;98.40
27803;DHT22;15182;48.174;11.562;2024-01-07T14:16:03;6.10;98.20
27803;DHT22;15182;48.174;11.562;2024-01-07T14:18:34;6.10;98.20
27803;DHT22;15182;48.174;11.562;2024-01-07T14:21:02;6.10;98.20
27803;DHT22;15182;48.174;11.562;2024-01-07T14:23:31;6.00;98.20
27803;DHT22;15182;48.174;11.562;2024-01-07T14:26:00;6.00;98.20
27803;DHT22;15182;48.174;11.562;2024-01-07T14:28:27;6.10;98.30
27803;DHT22;15182;48.174;11.562;2024-01-07T14:30:55;6.10;98.30
27803;DHT22;15182;48.174;11.562;2024-01-07T14:33:24;6.10;98.20
27803;DHT22;15182;48.174;11.562;2024-01-07T14:35:53;6.00;98.10
27803;DHT22;15182;48.174;11.562;2024-01-07T14:38:21;6.00;98.10
27803;DHT22;15182;48.174;11.562;2024-01-07T14:40:49;6.00;98.00
27803;DHT22;15182;48.174;11.562;2024-01-07T14:43:18;5.90;98.00
27803;DHT22;15182;48.174;11.562;2024-01-07T14:45:46;5.90;98.10
27803;DHT22;15182;48.174;11.562;2024-01-07T14:48:13;5.90;98.00
27803;DHT22;15182;48.174;11.562;2024-01-07T14:50:41;5.90;98.00
27803;DHT22;15182;48.174;11.562;2024-01-07T14:53:15;5.90;98.00
27803;DHT22;15182;48.174;11.562;2024-01-07T14:55:43;5.90;98.00
27803;DHT22;15182;48.174;11.562;2024-01-07T14:58:11;5.80;98.30
27803;DHT22;15182;48.174;11.562;2024-01-07T15:00:39;5.80;98.10
27803;DHT22;15182;48.174;11.562;2024-01-07T15:03:07;5.80;98.10
27803;DHT22;15182;48.174;11.562;2024-01-07T15:05:35;5.80;98.00
27803;DHT22;15182;48.174;11.562;2024-01-07T15:08:03;5.70;97.90
27803;DHT22;15182;48.174;11.562;2024-01-07T15:10:32;5.70;98.00
27803;DHT22;15182;48.174;11.562;2024-01-07T15:13:00;5.70;98.00
27803;DHT22;15182;48.174;11.562;2024-01-07T15:15:28;5.70;98.10
27803;DHT22;15182;48.174;11.562;2024-01-07T15:17:57;5.70;98.10
27803;DHT22;15182;48.174;11.562;2024-01-07T15:20:25;5.70;98.10
27803;DHT22;15182;48.174;11.562;2024-01-07T15:22:53;5.60;98.20
27803;DHT22;15182;48.174;11.562;2024-01-07T15:25:21;5.60;98.10
27803;DHT22;15182;48.174;11.562;2024-01-07T15:27:50;5.70;98.10
27803;DHT22;15182;48.174;11.562;2024-01-07T15:30:18;5.60;98.40
27803;DHT22;15182;48.174;11.562;2024-01-07T15:32:46;5.60;98.10
27803;DHT22;15182;48.174;11.562;2024-01-07T15:35:14;5.60;98.10
27803;DHT22;15182;48.174;11.562;2024-01-07T15:37:42;5.60;98.10
27803;DHT22;15182;48.174;11.562;2024-01-07T15:40:10;5.60;98.10